sensor_id;sensor_type;location;lat;lon;timestamp;temperature;humidity
23083;DHT22;11709;52.420;10.538;2022-09-01T00:03:04;15.80;99.90
23083;DHT22;11709;52.420;10.538;2022-09-01T00:07:07;15.70;99.90
23083;DHT22;11709;52.420;10.538;2022-09-01T00:11:10;15.60;99.90
23083;DHT22;11709;52.420;10.538;2022-09-01T00:15:13;15.60;99.90
23083;DHT22;11709;52.420;10.538;2022-09-01T00:19:16;15.50;99.90
23083;DHT22;11709;52.420;10.538;2022-09-01T00:23:20;15.50;99.90
23083;DHT22;11709;52.420;10.538;2022-09-01T00:27:22;15.40;99.90
23083;DHT22;11709;52.420;10.538;2022-09-01T00:31:25;15.40;99.90
23083;DHT22;11709;52.420;10.538;2022-09-01T00:35:27;15.30;99.90
23083;DHT22;11709;52.420;10.538;2022-09-01T00:39:30;15.30;99.90
23083;DHT22;11709;52.420;10.538;2022-09-01T00:43:41;15.20;99.90
23083;DHT22;11709;52.420;10.538;2022-09-01T00:47:47;15.20;99.90
23083;DHT22;11709;52.420;10.538;2022-09-01T00:51:52;15.20;99.90
23083;DHT22;11709;52.420;10.538;2022-09-01T00:55:55;15.10;99.90
23083;DHT22;11709;52.420;10.538;2022-09-01T01:00:01;15.00;99.90
23083;DHT22;11709;52.420;10.538;2022-09-01T01:04:05;15.00;99.90
23083;DHT22;11709;52.420;10.538;2022-09-01T01:08:10;14.90;99.90
23083;DHT22;11709;52.420;10.538;2022-09-01T01:12:12;14.90;99.90
23083;DHT22;11709;52.420;10.538;2022-09-01T01:16:17;14.80;99.90
23083;DHT22;11709;52.420;10.538;2022-09-01T01:20:23;14.80;99.90
23083;DHT22;11709;52.420;10.538;2022-09-01T01:24:43;14.70;99.90
23083;DHT22;11709;52.420;10.538;2022-09-01T01:28:46;14.60;99.90
23083;DHT22;11709;52.420;10.538;2022-09-01T01:32:49;14.50;99.90
23083;DHT22;11709;52.420;10.538;2022-09-01T01:36:52;14.50;99.90
23083;DHT22;11709;52.420;10.538;2022-09-01T01:40:56;14.40;99.90
23083;DHT22;11709;52.420;10.538;2022-09-01T01:45:01;14.30;99.90
23083;DHT22;11709;52.420;10.538;2022-09-01T01:49:03;14.30;99.90
23083;DHT22;11709;52.420;10.538;2022-09-01T01:53:07;14.20;99.90
23083;DHT22;11709;52.420;10.538;2022-09-01T01:57:12;14.20;99.90
23083;DHT22;11709;52.420;10.538;2022-09-01T02:01:16;14.20;99.90
23083;DHT22;11709;52.420;10.538;2022-09-01T02:05:26;14.20;99.90
23083;DHT22;11709;52.420;10.538;2022-09-01T02:09:29;14.20;99.90
23083;DHT22;11709;52.420;10.538;2022-09-01T02:13:32;14.10;99.90
23083;DHT22;11709;52.420;10.538;2022-09-01T02:17:35;14.10;99.90
23083;DHT22;11709;52.420;10.538;2022-09-01T02:21:39;14.00;99.90
23083;DHT22;11709;52.420;10.538;2022-09-01T02:25:44;14.00;99.90
23083;DHT22;11709;52.420;10.538;2022-09-01T02:29:47;13.90;99.90
23083;DHT22;11709;52.420;10.538;2022-09-01T02:33:51;13.90;99.90
23083;DHT22;11709;52.420;10.538;2022-09-01T02:37:54;13.90;99.90
23083;DHT22;11709;52.420;10.538;2022-09-01T02:41:58;13.90;99.90
23083;DHT22;11709;52.420;10.538;2022-09-01T02:46:02;13.90;99.90
23083;DHT22;11709;52.420;10.538;2022-09-01T02:50:06;13.90;99.90
23083;DHT22;11709;52.420;10.538;2022-09-01T02:54:12;13.90;99.90
23083;DHT22;11709;52.420;10.538;2022-09-01T02:58:17;13.90;99.90
23083;DHT22;11709;52.420;10.538;2022-09-01T03:02:20;13.90;99.90
23083;DHT22;11709;52.420;10.538;2022-09-01T03:06:24;13.80;99.90
23083;DHT22;11709;52.420;10.538;2022-09-01T03:10:32;13.70;99.90
23083;DHT22;11709;52.420;10.538;2022-09-01T03:14:36;13.70;99.90
23083;DHT22;11709;52.420;10.538;2022-09-01T03:18:38;13.60;99.90
23083;DHT22;11709;52.420;10.538;2022-09-01T03:22:43;13.60;99.90
23083;DHT22;11709;52.420;10.538;2022-09-01T03:26:46;13.50;99.90
23083;DHT22;11709;52.420;10.538;2022-09-01T03:30:52;13.50;99.90
23083;DHT22;11709;52.420;10.538;2022-09-01T03:34:55;13.40;99.90
23083;DHT22;11709;52.420;10.538;2022-09-01T03:38:57;13.40;99.90
23083;DHT22;11709;52.420;10.538;2022-09-01T03:43:02;13.40;99.90
23083;DHT22;11709;52.420;10.538;2022-09-01T03:47:05;13.40;99.90
23083;DHT22;11709;52.420;10.538;2022-09-01T03:51:09;13.30;99.90
23083;DHT22;11709;52.420;10.538;2022-09-01T03:55:17;13.30;99.90
23083;DHT22;11709;52.420;10.538;2022-09-01T03:59:21;13.30;99.90
23083;DHT22;11709;52.420;10.538;2022-09-01T04:03:26;13.20;99.90
23083;DHT22;11709;52.420;10.538;2022-09-01T04:07:30;13.10;99.90
23083;DHT22;11709;52.420;10.538;2022-09-01T04:11:32;13.10;99.90
23083;DHT22;11709;52.420;10.538;2022-09-01T04:15:37;13.00;99.90
23083;DHT22;11709;52.420;10.538;2022-09-01T04:19:40;13.00;99.90
23083;DHT22;11709;52.420;10.538;2022-09-01T04:23:43;12.90;99.90
23083;DHT22;11709;52.420;10.538;2022-09-01T04:27:48;12.90;99.90
23083;DHT22;11709;52.420;10.538;2022-09-01T04:31:51;12.80;99.90
23083;DHT22;11709;52.420;10.538;2022-09-01T04:35:54;12.80;99.90
23083;DHT22;11709;52.420;10.538;2022-09-01T04:39:57;12.70;99.90
23083;DHT22;11709;52.420;10.538;2022-09-01T04:44:00;12.70;99.90
23083;DHT22;11709;52.420;10.538;2022-09-01T04:48:05;12.60;99.90
23083;DHT22;11709;52.420;10.538;2022-09-01T04:52:07;12.60;99.90
23083;DHT22;11709;52.420;10.538;2022-09-01T04:56:10;12.60;99.90
23083;DHT22;11709;52.420;10.538;2022-09-01T05:00:20;12.60;99.90
23083;DHT22;11709;52.420;10.538;2022-09-01T05:04:26;12.40;99.90
23083;DHT22;11709;52.420;10.538;2022-09-01T05:08:30;12.50;99.90
23083;DHT22;11709;52.420;10.538;2022-09-01T05:12:35;12.50;99.90
23083;DHT22;11709;52.420;10.538;2022-09-01T05:16:37;12.50;99.90
23083;DHT22;11709;52.420;10.538;2022-09-01T05:20:43;12.50;99.90
23083;DHT22;11709;52.420;10.538;2022-09-01T05:24:45;12.50;99.90
23083;DHT22;11709;52.420;10.538;2022-09-01T05:28:51;12.50;99.90
23083;DHT22;11709;52.420;10.538;2022-09-01T05:32:55;12.50;99.90
23083;DHT22;11709;52.420;10.538;2022-09-01T05:36:58;12.50;99.90
23083;DHT22;11709;52.420;10.538;2022-09-01T05:41:04;12.60;99.90
23083;DHT22;11709;52.420;10.538;2022-09-01T05:45:08;12.60;99.90
23083;DHT22;11709;52.420;10.538;2022-09-01T05:49:12;12.60;99.90
23083;DHT22;11709;52.420;10.538;2022-09-01T05:53:16;12.70;99.90
23083;DHT22;11709;52.420;10.538;2022-09-01T05:57:19;12.80;99.90
23083;DHT22;11709;52.420;10.538;2022-09-01T06:01:24;12.90;99.90
23083;DHT22;11709;52.420;10.538;2022-09-01T06:05:26;13.00;99.90
23083;DHT22;11709;52.420;10.538;2022-09-01T06:09:29;13.10;99.90
23083;DHT22;11709;52.420;10.538;2022-09-01T06:13:32;13.20;99.90
23083;DHT22;11709;52.420;10.538;2022-09-01T06:17:34;13.30;99.90
23083;DHT22;11709;52.420;10.538;2022-09-01T06:21:38;13.40;99.90
23083;DHT22;11709;52.420;10.538;2022-09-01T06:25:43;13.60;99.90
23083;DHT22;11709;52.420;10.538;2022-09-01T06:29:47;13.80;99.90
23083;DHT22;11709;52.420;10.538;2022-09-01T06:33:54;13.90;99.90
23083;DHT22;11709;52.420;10.538;2022-09-01T06:37:58;14.00;99.90
23083;DHT22;11709;52.420;10.538;2022-09-01T06:42:02;14.20;99.90
23083;DHT22;11709;52.420;10.538;2022-09-01T06:46:05;14.40;99.90
23083;DHT22;11709;52.420;10.538;2022-09-01T06:50:10;14.50;99.90
23083;DHT22;11709;52.420;10.538;2022-09-01T06:54:15;14.70;99.90
23083;DHT22;11709;52.420;10.538;2022-09-01T06:58:19;14.90;99.90
23083;DHT22;11709;52.420;10.538;2022-09-01T07:02:22;15.00;99.90
23083;DHT22;11709;52.420;10.538;2022-09-01T07:06:26;15.10;99.90
23083;DHT22;11709;52.420;10.538;2022-09-01T07:10:28;15.30;99.90
23083;DHT22;11709;52.420;10.538;2022-09-01T07:14:31;15.50;99.90
23083;DHT22;11709;52.420;10.538;2022-09-01T07:18:34;15.60;99.90
23083;DHT22;11709;52.420;10.538;2022-09-01T07:22:37;15.80;99.90
23083;DHT22;11709;52.420;10.538;2022-09-01T07:26:40;16.00;99.90
23083;DHT22;11709;52.420;10.538;2022-09-01T07:30:46;16.20;99.90
23083;DHT22;11709;52.420;10.538;2022-09-01T07:34:49;16.30;99.90
23083;DHT22;11709;52.420;10.538;2022-09-01T07:38:52;16.50;99.90
23083;DHT22;11709;52.420;10.538;2022-09-01T07:42:55;16.70;99.90
23083;DHT22;11709;52.420;10.538;2022-09-01T07:46:57;16.90;99.90
23083;DHT22;11709;52.420;10.538;2022-09-01T07:51:00;17.10;99.90
23083;DHT22;11709;52.420;10.538;2022-09-01T07:55:04;17.20;99.90
23083;DHT22;11709;52.420;10.538;2022-09-01T07:59:09;17.40;99.90
23083;DHT22;11709;52.420;10.538;2022-09-01T08:03:12;17.50;99.90
23083;DHT22;11709;52.420;10.538;2022-09-01T08:07:15;17.70;99.90
23083;DHT22;11709;52.420;10.538;2022-09-01T08:11:19;17.90;99.90
23083;DHT22;11709;52.420;10.538;2022-09-01T08:15:24;18.00;99.90
23083;DHT22;11709;52.420;10.538;2022-09-01T08:19:27;18.20;99.90
23083;DHT22;11709;52.420;10.538;2022-09-01T08:23:29;18.30;99.90
23083;DHT22;11709;52.420;10.538;2022-09-01T08:27:34;18.40;99.90
23083;DHT22;11709;52.420;10.538;2022-09-01T08:31:42;18.60;99.90
23083;DHT22;11709;52.420;10.538;2022-09-01T08:35:47;18.70;99.90
23083;DHT22;11709;52.420;10.538;2022-09-01T08:39:50;18.90;99.90
23083;DHT22;11709;52.420;10.538;2022-09-01T08:44:08;19.10;99.90
23083;DHT22;11709;52.420;10.538;2022-09-01T08:53:20;19.30;99.90
23083;DHT22;11709;52.420;10.538;2022-09-01T08:56:37;19.50;99.90
23083;DHT22;11709;52.420;10.538;2022-09-01T09:00:44;19.60;99.90
23083;DHT22;11709;52.420;10.538;2022-09-01T09:09:04;19.90;99.90
23083;DHT22;11709;52.420;10.538;2022-09-01T09:17:28;20.20;99.90
23083;DHT22;11709;52.420;10.538;2022-09-01T09:21:36;20.40;99.90
23083;DHT22;11709;52.420;10.538;2022-09-01T09:25:38;20.60;99.90
23083;DHT22;11709;52.420;10.538;2022-09-01T09:29:41;20.60;99.90
23083;DHT22;11709;52.420;10.538;2022-09-01T09:33:43;20.90;99.90
23083;DHT22;11709;52.420;10.538;2022-09-01T09:37:46;21.10;99.90
23083;DHT22;11709;52.420;10.538;2022-09-01T09:42:02;21.20;99.90
23083;DHT22;11709;52.420;10.538;2022-09-01T09:46:22;21.40;99.90
23083;DHT22;11709;52.420;10.538;2022-09-01T09:50:30;21.60;99.90
23083;DHT22;11709;52.420;10.538;2022-09-01T09:54:35;21.70;99.90
23083;DHT22;11709;52.420;10.538;2022-09-01T09:58:40;21.90;99.90
23083;DHT22;11709;52.420;10.538;2022-09-01T10:02:44;22.10;99.90
23083;DHT22;11709;52.420;10.538;2022-09-01T10:06:47;22.30;99.90
23083;DHT22;11709;52.420;10.538;2022-09-01T10:10:50;22.50;99.90
23083;DHT22;11709;52.420;10.538;2022-09-01T10:15:08;22.60;99.90
23083;DHT22;11709;52.420;10.538;2022-09-01T10:19:10;22.90;99.90
23083;DHT22;11709;52.420;10.538;2022-09-01T10:23:14;23.10;99.90
23083;DHT22;11709;52.420;10.538;2022-09-01T10:27:19;23.20;99.90
23083;DHT22;11709;52.420;10.538;2022-09-01T10:31:22;23.40;99.90
23083;DHT22;11709;52.420;10.538;2022-09-01T10:35:30;23.50;99.90
23083;DHT22;11709;52.420;10.538;2022-09-01T10:39:33;23.60;99.90
23083;DHT22;11709;52.420;10.538;2022-09-01T10:43:45;23.80;99.90
23083;DHT22;11709;52.420;10.538;2022-09-01T10:47:49;23.90;99.70
23083;DHT22;11709;52.420;10.538;2022-09-01T10:51:52;23.80;99.90
23083;DHT22;11709;52.420;10.538;2022-09-01T10:56:22;23.80;99.90
23083;DHT22;11709;52.420;10.538;2022-09-01T11:08:46;24.10;96.70
23083;DHT22;11709;52.420;10.538;2022-09-01T11:17:33;24.90;94.70
23083;DHT22;11709;52.420;10.538;2022-09-01T11:21:36;25.30;91.70
23083;DHT22;11709;52.420;10.538;2022-09-01T11:25:42;25.60;90.10
23083;DHT22;11709;52.420;10.538;2022-09-01T11:29:56;26.00;88.90
23083;DHT22;11709;52.420;10.538;2022-09-01T11:38:15;26.60;82.80
23083;DHT22;11709;52.420;10.538;2022-09-01T11:42:28;27.00;80.70
23083;DHT22;11709;52.420;10.538;2022-09-01T11:46:33;26.90;77.60
23083;DHT22;11709;52.420;10.538;2022-09-01T11:50:38;26.90;76.60
23083;DHT22;11709;52.420;10.538;2022-09-01T11:54:43;26.90;75.20
23083;DHT22;11709;52.420;10.538;2022-09-01T11:58:49;27.40;77.70
23083;DHT22;11709;52.420;10.538;2022-09-01T12:02:52;27.70;70.60
23083;DHT22;11709;52.420;10.538;2022-09-01T12:07:04;27.40;70.90
23083;DHT22;11709;52.420;10.538;2022-09-01T12:11:12;27.10;71.00
23083;DHT22;11709;52.420;10.538;2022-09-01T12:15:24;27.20;70.90
23083;DHT22;11709;52.420;10.538;2022-09-01T12:19:34;27.10;68.80
23083;DHT22;11709;52.420;10.538;2022-09-01T12:23:39;27.40;67.30
23083;DHT22;11709;52.420;10.538;2022-09-01T12:27:47;28.30;65.20
23083;DHT22;11709;52.420;10.538;2022-09-01T12:31:50;29.80;61.60
23083;DHT22;11709;52.420;10.538;2022-09-01T12:36:34;31.20;57.40
23083;DHT22;11709;52.420;10.538;2022-09-01T12:40:29;31.80;54.50
23083;DHT22;11709;52.420;10.538;2022-09-01T12:44:41;30.70;54.30
23083;DHT22;11709;52.420;10.538;2022-09-01T12:48:39;30.00;54.80
23083;DHT22;11709;52.420;10.538;2022-09-01T12:52:46;29.80;55.20
23083;DHT22;11709;52.420;10.538;2022-09-01T12:56:51;30.80;54.80
23083;DHT22;11709;52.420;10.538;2022-09-01T13:01:05;32.80;52.10
23083;DHT22;11709;52.420;10.538;2022-09-01T13:05:24;34.50;46.80
23083;DHT22;11709;52.420;10.538;2022-09-01T13:09:26;35.50;44.00
23083;DHT22;11709;52.420;10.538;2022-09-01T13:13:29;35.90;42.10
23083;DHT22;11709;52.420;10.538;2022-09-01T13:17:32;35.10;40.90
23083;DHT22;11709;52.420;10.538;2022-09-01T13:21:35;33.50;41.40
23083;DHT22;11709;52.420;10.538;2022-09-01T13:25:39;32.40;43.10
23083;DHT22;11709;52.420;10.538;2022-09-01T13:29:43;33.60;42.70
23083;DHT22;11709;52.420;10.538;2022-09-01T13:33:46;35.60;40.10
23083;DHT22;11709;52.420;10.538;2022-09-01T13:37:49;37.60;37.00
23083;DHT22;11709;52.420;10.538;2022-09-01T13:41:51;39.80;35.90
23083;DHT22;11709;52.420;10.538;2022-09-01T13:45:54;40.80;33.60
23083;DHT22;11709;52.420;10.538;2022-09-01T13:49:57;41.90;32.40
23083;DHT22;11709;52.420;10.538;2022-09-01T13:54:00;42.40;30.30
23083;DHT22;11709;52.420;10.538;2022-09-01T13:58:03;42.60;31.10
23083;DHT22;11709;52.420;10.538;2022-09-01T14:02:06;43.30;30.50
23083;DHT22;11709;52.420;10.538;2022-09-01T14:06:08;44.00;29.50
23083;DHT22;11709;52.420;10.538;2022-09-01T14:10:11;43.50;28.60
23083;DHT22;11709;52.420;10.538;2022-09-01T14:14:14;43.90;29.30
23083;DHT22;11709;52.420;10.538;2022-09-01T14:18:17;43.70;28.20
23083;DHT22;11709;52.420;10.538;2022-09-01T14:22:20;45.10;28.40
23083;DHT22;11709;52.420;10.538;2022-09-01T14:26:22;46.10;26.50
23083;DHT22;11709;52.420;10.538;2022-09-01T14:30:27;46.50;26.30
23083;DHT22;11709;52.420;10.538;2022-09-01T14:34:30;47.40;26.10
23083;DHT22;11709;52.420;10.538;2022-09-01T14:38:33;48.10;25.40
23083;DHT22;11709;52.420;10.538;2022-09-01T14:42:36;48.00;25.20
23083;DHT22;11709;52.420;10.538;2022-09-01T14:46:40;47.90;24.90
23083;DHT22;11709;52.420;10.538;2022-09-01T14:50:47;48.60;25.60
23083;DHT22;11709;52.420;10.538;2022-09-01T14:54:51;49.40;25.30
23083;DHT22;11709;52.420;10.538;2022-09-01T14:58:53;46.30;30.90
23083;DHT22;11709;52.420;10.538;2022-09-01T15:02:57;42.70;35.20
23083;DHT22;11709;52.420;10.538;2022-09-01T15:07:00;42.90;35.70
23083;DHT22;11709;52.420;10.538;2022-09-01T15:11:09;42.70;27.40
23083;DHT22;11709;52.420;10.538;2022-09-01T15:15:12;41.00;29.20
23083;DHT22;11709;52.420;10.538;2022-09-01T15:19:14;39.20;29.40
23083;DHT22;11709;52.420;10.538;2022-09-01T15:23:20;37.30;31.00
23083;DHT22;11709;52.420;10.538;2022-09-01T15:27:23;35.50;33.30
23083;DHT22;11709;52.420;10.538;2022-09-01T15:31:26;33.40;35.50
23083;DHT22;11709;52.420;10.538;2022-09-01T15:35:31;32.40;37.30
23083;DHT22;11709;52.420;10.538;2022-09-01T15:39:34;31.50;39.00
23083;DHT22;11709;52.420;10.538;2022-09-01T15:43:37;30.50;40.70
23083;DHT22;11709;52.420;10.538;2022-09-01T15:47:39;29.70;41.60
23083;DHT22;11709;52.420;10.538;2022-09-01T15:51:43;29.40;42.70
23083;DHT22;11709;52.420;10.538;2022-09-01T15:55:47;29.00;43.80
23083;DHT22;11709;52.420;10.538;2022-09-01T15:59:50;28.70;44.20
23083;DHT22;11709;52.420;10.538;2022-09-01T16:03:58;28.70;44.60
23083;DHT22;11709;52.420;10.538;2022-09-01T16:07:57;28.50;44.70
23083;DHT22;11709;52.420;10.538;2022-09-01T16:12:02;28.10;46.30
23083;DHT22;11709;52.420;10.538;2022-09-01T16:20:23;27.60;46.70
23083;DHT22;11709;52.420;10.538;2022-09-01T16:24:22;27.00;47.80
23083;DHT22;11709;52.420;10.538;2022-09-01T16:28:31;26.50;49.00
23083;DHT22;11709;52.420;10.538;2022-09-01T16:32:40;26.30;50.10
23083;DHT22;11709;52.420;10.538;2022-09-01T16:41:15;26.00;51.00
23083;DHT22;11709;52.420;10.538;2022-09-01T16:45:50;25.90;51.70
23083;DHT22;11709;52.420;10.538;2022-09-01T16:50:21;25.70;51.60
23083;DHT22;11709;52.420;10.538;2022-09-01T16:59:05;25.20;53.10
23083;DHT22;11709;52.420;10.538;2022-09-01T17:03:13;25.20;53.10
23083;DHT22;11709;52.420;10.538;2022-09-01T17:07:20;25.00;53.80
23083;DHT22;11709;52.420;10.538;2022-09-01T17:11:31;24.80;54.20
23083;DHT22;11709;52.420;10.538;2022-09-01T17:15:36;24.70;54.30
23083;DHT22;11709;52.420;10.538;2022-09-01T17:19:44;24.50;54.20
23083;DHT22;11709;52.420;10.538;2022-09-01T17:28:03;24.10;55.10
23083;DHT22;11709;52.420;10.538;2022-09-01T17:40:48;23.70;56.10
23083;DHT22;11709;52.420;10.538;2022-09-01T17:44:53;23.50;56.40
23083;DHT22;11709;52.420;10.538;2022-09-01T17:49:09;23.40;56.60
23083;DHT22;11709;52.420;10.538;2022-09-01T17:53:37;23.30;57.00
23083;DHT22;11709;52.420;10.538;2022-09-01T18:06:47;22.90;58.40
23083;DHT22;11709;52.420;10.538;2022-09-01T18:19:15;22.40;59.80
23083;DHT22;11709;52.420;10.538;2022-09-01T18:23:19;22.40;60.20
23083;DHT22;11709;52.420;10.538;2022-09-01T18:27:23;22.30;61.20
23083;DHT22;11709;52.420;10.538;2022-09-01T18:35:45;22.10;62.40
23083;DHT22;11709;52.420;10.538;2022-09-01T18:40:03;22.00;63.20
23083;DHT22;11709;52.420;10.538;2022-09-01T18:53:02;21.50;66.10
23083;DHT22;11709;52.420;10.538;2022-09-01T18:57:07;21.30;67.00
23083;DHT22;11709;52.420;10.538;2022-09-01T19:01:14;21.20;68.00
23083;DHT22;11709;52.420;10.538;2022-09-01T19:09:54;20.90;69.60
23083;DHT22;11709;52.420;10.538;2022-09-01T19:13:51;20.90;70.50
23083;DHT22;11709;52.420;10.538;2022-09-01T19:18:02;20.80;71.50
23083;DHT22;11709;52.420;10.538;2022-09-01T19:22:05;20.70;72.50
23083;DHT22;11709;52.420;10.538;2022-09-01T19:26:14;20.50;73.60
23083;DHT22;11709;52.420;10.538;2022-09-01T19:30:14;20.50;74.30
23083;DHT22;11709;52.420;10.538;2022-09-01T19:34:36;20.40;75.20
23083;DHT22;11709;52.420;10.538;2022-09-01T19:38:35;20.40;76.20
23083;DHT22;11709;52.420;10.538;2022-09-01T19:42:41;20.30;77.10
23083;DHT22;11709;52.420;10.538;2022-09-01T19:46:46;20.20;78.20
23083;DHT22;11709;52.420;10.538;2022-09-01T19:51:05;20.20;79.20
23083;DHT22;11709;52.420;10.538;2022-09-01T19:55:26;20.10;80.50
23083;DHT22;11709;52.420;10.538;2022-09-01T19:59:40;20.00;81.80
23083;DHT22;11709;52.420;10.538;2022-09-01T20:03:44;19.90;83.40
23083;DHT22;11709;52.420;10.538;2022-09-01T20:07:57;19.80;84.80
23083;DHT22;11709;52.420;10.538;2022-09-01T20:20:29;19.60;89.90
23083;DHT22;11709;52.420;10.538;2022-09-01T20:24:37;19.50;90.70
23083;DHT22;11709;52.420;10.538;2022-09-01T20:29:02;19.30;91.90
23083;DHT22;11709;52.420;10.538;2022-09-01T20:33:36;19.20;93.00
23083;DHT22;11709;52.420;10.538;2022-09-01T20:37:46;19.20;94.30
23083;DHT22;11709;52.420;10.538;2022-09-01T20:41:57;19.10;95.70
23083;DHT22;11709;52.420;10.538;2022-09-01T20:46:00;19.00;97.20
23083;DHT22;11709;52.420;10.538;2022-09-01T20:50:10;18.90;98.50
23083;DHT22;11709;52.420;10.538;2022-09-01T20:58:36;18.70;99.90
23083;DHT22;11709;52.420;10.538;2022-09-01T21:24:05;18.30;99.90
23083;DHT22;11709;52.420;10.538;2022-09-01T21:28:08;18.20;99.90
23083;DHT22;11709;52.420;10.538;2022-09-01T21:32:11;18.10;99.90
23083;DHT22;11709;52.420;10.538;2022-09-01T21:36:16;18.00;99.90
23083;DHT22;11709;52.420;10.538;2022-09-01T21:40:21;18.00;99.90
23083;DHT22;11709;52.420;10.538;2022-09-01T21:44:26;17.90;99.90
23083;DHT22;11709;52.420;10.538;2022-09-01T21:48:29;17.80;99.90
23083;DHT22;11709;52.420;10.538;2022-09-01T21:52:32;17.80;99.90
23083;DHT22;11709;52.420;10.538;2022-09-01T21:56:34;17.70;99.90
23083;DHT22;11709;52.420;10.538;2022-09-01T22:00:39;17.60;99.90
23083;DHT22;11709;52.420;10.538;2022-09-01T22:04:43;17.60;99.90
23083;DHT22;11709;52.420;10.538;2022-09-01T22:08:45;17.50;99.90
23083;DHT22;11709;52.420;10.538;2022-09-01T22:12:49;17.50;99.90
23083;DHT22;11709;52.420;10.538;2022-09-01T22:16:51;17.50;99.90
23083;DHT22;11709;52.420;10.538;2022-09-01T22:21:05;17.40;99.90
23083;DHT22;11709;52.420;10.538;2022-09-01T22:25:11;17.30;99.90
23083;DHT22;11709;52.420;10.538;2022-09-01T22:29:14;17.30;99.90
23083;DHT22;11709;52.420;10.538;2022-09-01T22:33:19;17.20;99.90
23083;DHT22;11709;52.420;10.538;2022-09-01T22:37:21;17.20;99.90
23083;DHT22;11709;52.420;10.538;2022-09-01T22:41:26;17.10;99.90
23083;DHT22;11709;52.420;10.538;2022-09-01T22:45:28;17.10;99.90
23083;DHT22;11709;52.420;10.538;2022-09-01T22:49:31;17.00;99.90
23083;DHT22;11709;52.420;10.538;2022-09-01T22:53:35;17.00;99.90
23083;DHT22;11709;52.420;10.538;2022-09-01T22:57:38;16.90;99.90
23083;DHT22;11709;52.420;10.538;2022-09-01T23:01:44;16.90;99.90
23083;DHT22;11709;52.420;10.538;2022-09-01T23:05:48;16.80;99.90
23083;DHT22;11709;52.420;10.538;2022-09-01T23:09:50;16.80;99.90
23083;DHT22;11709;52.420;10.538;2022-09-01T23:13:53;16.80;99.90
23083;DHT22;11709;52.420;10.538;2022-09-01T23:17:56;16.60;99.90
23083;DHT22;11709;52.420;10.538;2022-09-01T23:21:59;16.60;99.90
23083;DHT22;11709;52.420;10.538;2022-09-01T23:26:03;16.50;99.90
23083;DHT22;11709;52.420;10.538;2022-09-01T23:30:08;16.50;99.90
23083;DHT22;11709;52.420;10.538;2022-09-01T23:34:11;16.50;99.90
23083;DHT22;11709;52.420;10.538;2022-09-01T23:38:15;16.40;99.90
23083;DHT22;11709;52.420;10.538;2022-09-01T23:42:19;16.30;99.90
23083;DHT22;11709;52.420;10.538;2022-09-01T23:46:25;16.30;99.90
23083;DHT22;11709;52.420;10.538;2022-09-01T23:50:28;16.30;99.90
23083;DHT22;11709;52.420;10.538;2022-09-01T23:54:30;16.20;99.90
23083;DHT22;11709;52.420;10.538;2022-09-01T23:58:33;16.20;99.90
